createdAt,value
2023-03-07T00:00:53.924Z,27.70
2023-03-07T00:01:53.905Z,27.80
2023-03-07T00:03:49.680Z,28.30
2023-03-07T00:04:50.688Z,30.00
2023-03-07T00:05:49.640Z,29.50
2023-03-07T00:06:49.625Z,26.10
2023-03-07T00:07:49.630Z,26.00
2023-03-07T00:08:49.604Z,28.50
2023-03-07T00:09:49.611Z,28.70
2023-03-07T00:10:49.590Z,27.80
2023-03-07T00:11:49.574Z,29.00
2023-03-07T00:12:49.580Z,29.50
2023-03-07T00:13:49.553Z,27.40
2023-03-07T00:14:49.543Z,29.00
2023-03-07T00:15:49.630Z,27.40
2023-03-07T00:16:49.520Z,26.90
2023-03-07T00:17:49.524Z,28.50
2023-03-07T00:18:49.533Z,26.80
2023-03-07T00:19:49.492Z,30.80
2023-03-07T00:20:49.572Z,31.70
2023-03-07T00:21:49.469Z,27.60
2023-03-07T00:22:49.493Z,28.40
2023-03-07T00:23:49.451Z,30.50
2023-03-07T00:24:49.441Z,26.70
2023-03-07T00:25:49.431Z,27.30
2023-03-07T00:26:49.419Z,28.20
2023-03-07T00:27:49.420Z,28.00
2023-03-07T00:28:49.419Z,28.60
2023-03-07T00:29:49.394Z,29.90
2023-03-07T00:30:49.381Z,27.80
2023-03-07T00:31:49.493Z,27.50
2023-03-07T00:32:49.360Z,26.70
2023-03-07T00:33:49.361Z,27.40
2023-03-07T00:34:49.337Z,29.00
2023-03-07T00:35:49.337Z,28.40
2023-03-07T00:36:49.320Z,28.20
2023-03-07T00:37:49.313Z,28.80
2023-03-07T00:38:49.311Z,29.70
2023-03-07T00:39:49.288Z,29.10
2023-03-07T00:40:49.276Z,25.90
2023-03-07T00:41:49.268Z,26.60
2023-03-07T00:42:49.254Z,27.60
2023-03-07T00:43:49.263Z,27.30
2023-03-07T00:44:49.237Z,27.00
2023-03-07T00:45:49.267Z,25.60
2023-03-07T00:46:49.219Z,28.10
2023-03-07T00:47:49.209Z,29.80
2023-03-07T00:48:49.205Z,29.00
2023-03-07T00:49:49.193Z,29.70
2023-03-07T00:50:49.172Z,27.40
2023-03-07T00:51:49.161Z,28.00
2023-03-07T00:52:49.150Z,31.30
2023-03-07T00:53:49.151Z,29.00
2023-03-07T00:54:49.128Z,29.00
2023-03-07T00:55:49.119Z,29.10
2023-03-07T00:56:49.105Z,31.40
2023-03-07T00:57:49.098Z,28.40
2023-03-07T00:58:49.103Z,30.40
2023-03-07T00:59:49.088Z,31.20
2023-03-07T01:00:49.113Z,31.50
2023-03-07T01:01:49.057Z,31.10
2023-03-07T01:02:49.054Z,32.80
2023-03-07T01:03:49.049Z,31.70
2023-03-07T01:04:49.029Z,35.30
2023-03-07T01:05:49.021Z,34.30
2023-03-07T01:06:49.014Z,30.80
2023-03-07T01:07:49.005Z,34.10
2023-03-07T01:08:48.998Z,30.20
2023-03-07T01:09:48.979Z,36.70
2023-03-07T01:10:48.959Z,33.40
2023-03-07T01:11:48.951Z,35.10
2023-03-07T01:12:48.943Z,36.40
2023-03-07T01:13:48.946Z,33.90
2023-03-07T01:14:48.920Z,37.50
2023-03-07T01:15:48.912Z,33.00
2023-03-07T01:16:48.969Z,36.70
2023-03-07T01:17:48.896Z,33.40
2023-03-07T01:18:48.896Z,35.10
2023-03-07T01:19:48.880Z,34.90
2023-03-07T01:20:48.868Z,34.40
2023-03-07T01:21:48.855Z,33.20
2023-03-07T01:22:48.844Z,34.60
2023-03-07T01:23:48.855Z,34.90
2023-03-07T01:24:48.826Z,34.90
2023-03-07T01:25:48.814Z,32.60
2023-03-07T01:26:48.804Z,34.30
2023-03-07T01:27:48.794Z,35.50
2023-03-07T01:28:48.794Z,36.60
2023-03-07T01:29:48.789Z,36.60
2023-03-07T01:30:48.763Z,36.80
2023-03-07T01:31:48.832Z,35.30
2023-03-07T01:32:48.845Z,37.30
2023-03-07T01:33:48.753Z,34.90
2023-03-07T01:34:48.731Z,35.90
2023-03-07T01:35:48.746Z,35.10
2023-03-07T01:36:48.725Z,35.60
2023-03-07T01:37:48.697Z,33.80
2023-03-07T01:38:48.694Z,35.30
2023-03-07T01:39:48.677Z,36.80
2023-03-07T01:40:48.661Z,33.30
2023-03-07T01:41:48.667Z,36.10
2023-03-07T01:42:48.638Z,36.50
2023-03-07T01:43:48.652Z,33.10
2023-03-07T01:44:48.619Z,33.30
2023-03-07T01:45:48.661Z,33.50
2023-03-07T01:46:48.604Z,34.70
2023-03-07T01:47:48.587Z,33.70
2023-03-07T01:48:48.592Z,34.10
2023-03-07T01:49:48.580Z,31.60
2023-03-07T01:50:48.564Z,31.20
2023-03-07T01:51:48.554Z,31.70
2023-03-07T01:52:48.537Z,31.50
2023-03-07T01:53:48.536Z,31.50
2023-03-07T01:54:48.528Z,32.40
2023-03-07T01:55:48.518Z,32.50
2023-03-07T01:56:48.491Z,33.70
2023-03-07T01:57:48.488Z,32.10
2023-03-07T01:58:48.476Z,31.60
2023-03-07T01:59:48.476Z,33.30
2023-03-07T02:00:48.451Z,31.60
2023-03-07T02:01:48.446Z,32.40
2023-03-07T02:02:48.425Z,30.70
2023-03-07T02:03:48.419Z,28.20
2023-03-07T02:04:48.414Z,32.20
2023-03-07T02:05:48.398Z,30.50
2023-03-07T02:06:48.390Z,30.00
2023-03-07T02:07:48.370Z,30.50
2023-03-07T02:08:48.365Z,30.10
2023-03-07T02:09:48.363Z,28.10
2023-03-07T02:10:48.345Z,29.00
2023-03-07T02:11:48.331Z,32.30
2023-03-07T02:12:48.320Z,29.10
2023-03-07T02:13:48.305Z,29.40
2023-03-07T02:14:48.309Z,33.40
2023-03-07T02:15:48.295Z,31.50
2023-03-07T02:16:48.280Z,30.90
2023-03-07T02:17:48.268Z,29.20
2023-03-07T02:18:48.263Z,29.90
2023-03-07T02:19:48.256Z,30.90
2023-03-07T02:20:48.239Z,31.40
2023-03-07T02:21:48.225Z,29.10
2023-03-07T02:22:48.222Z,32.60
2023-03-07T02:23:48.202Z,31.30
2023-03-07T02:24:48.205Z,32.60
2023-03-07T02:25:48.185Z,29.60
2023-03-07T02:26:48.181Z,30.60
2023-03-07T02:27:48.166Z,28.90
2023-03-07T02:28:48.154Z,32.60
2023-03-07T02:29:48.159Z,31.90
2023-03-07T02:30:48.165Z,29.40
2023-03-07T02:31:48.123Z,32.30
2023-03-07T02:32:48.113Z,30.90
2023-03-07T02:33:48.101Z,28.90
2023-03-07T02:34:48.106Z,28.50
2023-03-07T02:35:48.149Z,31.70
2023-03-07T02:36:48.072Z,31.20
2023-03-07T02:37:48.058Z,29.80
2023-03-07T02:38:48.050Z,29.00
2023-03-07T02:39:48.046Z,30.80
2023-03-07T02:40:48.028Z,30.60
2023-03-07T02:41:48.016Z,33.10
2023-03-07T02:42:48.010Z,31.40
2023-03-07T02:43:47.995Z,32.80
2023-03-07T02:44:47.999Z,32.90
2023-03-07T02:45:47.977Z,30.40
2023-03-07T02:46:47.969Z,29.50
2023-03-07T02:47:47.954Z,31.70
2023-03-07T02:48:47.941Z,32.10
2023-03-07T02:49:47.938Z,32.30
2023-03-07T02:50:47.923Z,31.90
2023-03-07T02:51:47.907Z,30.90
2023-03-07T02:52:47.904Z,31.30
2023-03-07T02:53:47.891Z,30.70
2023-03-07T02:54:47.893Z,29.40
2023-03-07T02:55:47.866Z,27.80
2023-03-07T02:56:47.857Z,31.10
2023-03-07T02:57:47.845Z,32.50
2023-03-07T02:58:47.839Z,30.40
2023-03-07T02:59:47.822Z,33.60
2023-03-07T03:00:47.822Z,32.30
2023-03-07T03:01:47.835Z,30.70
2023-03-07T03:02:47.800Z,29.50
2023-03-07T03:03:47.790Z,32.00
2023-03-07T03:04:47.824Z,28.80
2023-03-07T03:05:47.778Z,30.40
2023-03-07T03:06:47.755Z,29.20
2023-03-07T03:07:47.746Z,32.80
2023-03-07T03:08:47.733Z,27.90
2023-03-07T03:09:47.729Z,26.80
2023-03-07T03:10:47.830Z,28.80
2023-03-07T03:11:47.712Z,29.60
2023-03-07T03:12:47.691Z,29.90
2023-03-07T03:13:47.697Z,30.70
2023-03-07T03:14:47.670Z,30.10
2023-03-07T03:15:47.747Z,26.60
2023-03-07T03:16:47.654Z,30.00
2023-03-07T03:17:47.651Z,28.70
2023-03-07T03:18:47.634Z,29.10
2023-03-07T03:19:47.627Z,30.30
2023-03-07T03:20:47.630Z,29.70
2023-03-07T03:21:47.609Z,27.10
2023-03-07T03:22:47.616Z,29.50
2023-03-07T03:23:47.599Z,29.30
2023-03-07T03:24:47.596Z,28.40
2023-03-07T03:25:47.573Z,28.50
2023-03-07T03:26:47.561Z,28.80
2023-03-07T03:27:47.547Z,30.10
2023-03-07T03:28:47.532Z,28.60
2023-03-07T03:29:47.525Z,27.80
2023-03-07T03:30:47.524Z,28.60
2023-03-07T03:31:47.506Z,31.60
2023-03-07T03:32:47.496Z,31.10
2023-03-07T03:33:47.481Z,31.30
2023-03-07T03:34:47.465Z,29.90
2023-03-07T03:35:47.508Z,30.10
2023-03-07T03:36:47.448Z,30.00
2023-03-07T03:37:47.432Z,32.10
2023-03-07T03:38:47.421Z,29.40
2023-03-07T03:39:47.416Z,28.80
2023-03-07T03:40:47.409Z,31.40
2023-03-07T03:41:47.393Z,32.00
2023-03-07T03:42:47.464Z,29.70
2023-03-07T03:43:47.373Z,31.20
2023-03-07T03:44:47.359Z,32.30
2023-03-07T03:45:47.371Z,29.90
2023-03-07T03:46:47.424Z,31.00
2023-03-07T03:47:47.331Z,30.50
2023-03-07T03:48:47.319Z,31.80
2023-03-07T03:49:47.309Z,30.00
2023-03-07T03:50:47.306Z,29.20
2023-03-07T03:51:47.289Z,27.30
2023-03-07T03:52:47.283Z,30.20
2023-03-07T03:53:47.272Z,27.90
2023-03-07T03:54:47.274Z,26.80
2023-03-07T03:55:47.251Z,31.70
2023-03-07T03:56:47.274Z,28.20
2023-03-07T03:57:47.226Z,31.20
2023-03-07T03:58:47.214Z,28.90
2023-03-07T03:59:47.202Z,27.30
2023-03-07T04:00:47.196Z,27.60
2023-03-07T04:01:47.294Z,27.90
2023-03-07T04:02:47.337Z,27.50
2023-03-07T04:03:47.169Z,29.20
2023-03-07T04:04:47.152Z,26.50
2023-03-07T04:05:47.149Z,26.90
2023-03-07T04:06:47.141Z,27.40
2023-03-07T04:07:47.125Z,29.20
2023-03-07T04:08:47.108Z,29.00
2023-03-07T04:09:47.103Z,24.00
2023-03-07T04:10:47.088Z,28.00
2023-03-07T04:11:47.085Z,25.40
2023-03-07T04:12:47.066Z,27.60
2023-03-07T04:13:47.056Z,24.50
2023-03-07T04:14:47.056Z,26.40
2023-03-07T04:15:47.033Z,24.30
2023-03-07T04:16:47.170Z,27.20
2023-03-07T04:17:47.010Z,26.80
2023-03-07T04:18:46.998Z,24.90
2023-03-07T04:19:46.989Z,25.00
2023-03-07T04:20:46.976Z,23.70
2023-03-07T04:21:46.980Z,25.70
2023-03-07T04:22:46.956Z,23.40
2023-03-07T04:23:46.947Z,27.50
2023-03-07T04:24:46.937Z,26.00
2023-03-07T04:25:46.945Z,24.80
2023-03-07T04:26:46.925Z,23.50
2023-03-07T04:27:46.910Z,22.30
2023-03-07T04:28:46.901Z,24.60
2023-03-07T04:29:46.884Z,24.00
2023-03-07T04:30:46.886Z,23.00
2023-03-07T04:31:46.941Z,25.00
2023-03-07T04:32:46.882Z,23.30
2023-03-07T04:33:46.841Z,23.10
2023-03-07T04:34:46.832Z,23.60
2023-03-07T04:35:46.876Z,23.50
2023-03-07T04:36:46.821Z,25.00
2023-03-07T04:37:46.799Z,22.10
2023-03-07T04:38:46.794Z,21.50
2023-03-07T04:39:46.794Z,23.00
2023-03-07T04:40:46.772Z,22.70
2023-03-07T04:41:46.771Z,24.10
2023-03-07T04:42:46.755Z,22.70
2023-03-07T04:43:46.741Z,22.80
2023-03-07T04:44:46.729Z,22.70
2023-03-07T04:45:46.733Z,23.20
2023-03-07T04:46:46.739Z,23.10
2023-03-07T04:47:46.697Z,21.90
2023-03-07T04:48:46.689Z,22.50
2023-03-07T04:49:46.673Z,21.40
2023-03-07T04:50:46.666Z,22.10
2023-03-07T04:51:46.683Z,21.50
2023-03-07T04:52:46.642Z,20.50
2023-03-07T04:53:46.644Z,21.80
2023-03-07T04:54:46.624Z,20.10
2023-03-07T04:55:46.616Z,19.10
2023-03-07T04:56:46.613Z,23.10
2023-03-07T04:57:46.597Z,22.30
2023-03-07T04:58:46.579Z,20.20
2023-03-07T04:59:46.569Z,19.90
2023-03-07T05:00:46.558Z,21.40
2023-03-07T05:01:46.559Z,20.20
2023-03-07T05:02:46.747Z,21.30
2023-03-07T05:03:46.535Z,21.10
2023-03-07T05:04:46.513Z,18.80
2023-03-07T05:05:46.516Z,19.10
2023-03-07T05:06:46.503Z,20.60
2023-03-07T05:07:46.485Z,20.00
2023-03-07T05:08:46.476Z,18.60
2023-03-07T05:09:46.466Z,20.40
2023-03-07T05:10:46.456Z,21.30
2023-03-07T05:11:46.462Z,19.10
2023-03-07T05:12:46.435Z,20.00
2023-03-07T05:13:47.602Z,21.80
2023-03-07T05:14:47.554Z,22.80
2023-03-07T05:15:47.561Z,20.20
2023-03-07T05:16:47.565Z,20.10
2023-03-07T05:17:47.549Z,20.40
2023-03-07T05:18:47.512Z,19.50
2023-03-07T05:19:47.489Z,19.90
2023-03-07T05:20:47.468Z,21.10
2023-03-07T05:21:47.497Z,21.30
2023-03-07T05:22:47.455Z,20.60
2023-03-07T05:23:47.448Z,20.60
2023-03-07T05:24:47.423Z,20.60
2023-03-07T05:25:47.419Z,20.20
2023-03-07T05:26:47.425Z,20.30
2023-03-07T05:27:47.399Z,20.40
2023-03-07T05:28:47.382Z,18.30
2023-03-07T05:29:47.378Z,20.40
2023-03-07T05:30:47.417Z,17.80
2023-03-07T05:31:47.370Z,18.30
2023-03-07T05:32:47.369Z,17.90
2023-03-07T05:33:47.338Z,17.80
2023-03-07T05:34:47.334Z,19.70
2023-03-07T05:35:47.341Z,17.40
2023-03-07T05:36:47.310Z,17.50
2023-03-07T05:37:47.312Z,17.60
2023-03-07T05:38:47.298Z,19.60
2023-03-07T05:39:47.282Z,16.80
2023-03-07T05:40:47.274Z,17.50
2023-03-07T05:41:47.273Z,16.20
2023-03-07T05:42:47.267Z,20.00
2023-03-07T05:43:47.247Z,18.20
2023-03-07T05:44:47.242Z,17.10
2023-03-07T05:45:47.230Z,17.60
2023-03-07T05:46:47.237Z,18.50
2023-03-07T05:47:47.224Z,18.10
2023-03-07T05:48:47.190Z,17.70
2023-03-07T05:49:48.190Z,16.20
2023-03-07T05:50:47.180Z,17.10
2023-03-07T05:51:47.177Z,17.60
2023-03-07T05:52:47.171Z,18.80
2023-03-07T05:53:47.147Z,17.50
2023-03-07T05:54:47.142Z,18.40
2023-03-07T05:55:47.130Z,18.30
2023-03-07T05:56:47.120Z,18.70
2023-03-07T05:57:47.117Z,16.90
2023-03-07T05:58:47.094Z,17.30
2023-03-07T05:59:47.088Z,17.10
2023-03-07T06:00:47.082Z,18.20
2023-03-07T06:01:47.065Z,17.70
2023-03-07T06:02:47.165Z,15.90
2023-03-07T06:03:47.078Z,18.40
2023-03-07T06:04:47.061Z,17.20
2023-03-07T06:05:47.037Z,17.70
2023-03-07T06:06:47.050Z,16.00
2023-03-07T06:07:47.024Z,18.40
2023-03-07T06:08:47.012Z,17.50
2023-03-07T06:09:46.986Z,16.90
2023-03-07T06:10:46.978Z,18.70
2023-03-07T06:11:46.970Z,19.10
2023-03-07T06:12:46.972Z,20.30
2023-03-07T06:13:46.949Z,18.90
2023-03-07T06:14:46.954Z,17.20
2023-03-07T06:15:46.935Z,17.80
2023-03-07T06:16:46.925Z,16.10
2023-03-07T06:17:46.920Z,18.60
2023-03-07T06:18:46.902Z,18.10
2023-03-07T06:19:46.899Z,19.40
2023-03-07T06:20:46.881Z,18.10
2023-03-07T06:21:46.866Z,16.50
2023-03-07T06:22:46.878Z,16.90
2023-03-07T06:23:46.850Z,17.20
2023-03-07T06:24:46.845Z,16.80
2023-03-07T06:25:46.830Z,17.20
2023-03-07T06:26:46.824Z,16.30
2023-03-07T06:27:46.818Z,18.40
2023-03-07T06:28:46.803Z,18.30
2023-03-07T06:29:46.799Z,16.10
2023-03-07T06:30:46.788Z,17.00
2023-03-07T06:31:46.874Z,16.50
2023-03-07T06:32:46.780Z,17.80
2023-03-07T06:33:46.764Z,18.60
2023-03-07T06:34:46.745Z,17.10
2023-03-07T06:35:46.757Z,16.70
2023-03-07T06:36:46.726Z,17.40
2023-03-07T06:37:46.725Z,17.10
2023-03-07T06:38:46.808Z,18.80
2023-03-07T06:39:46.699Z,15.60
2023-03-07T06:40:46.692Z,15.60
2023-03-07T06:41:46.679Z,17.70
2023-03-07T06:42:46.970Z,15.30
2023-03-07T06:43:46.677Z,15.20
2023-03-07T06:44:46.712Z,15.00
2023-03-07T06:45:46.665Z,16.40
2023-03-07T06:46:46.627Z,15.90
2023-03-07T06:47:46.627Z,17.10
2023-03-07T06:48:46.612Z,16.20
2023-03-07T06:49:46.595Z,17.00
2023-03-07T06:50:46.585Z,18.20
2023-03-07T06:51:46.603Z,16.80
2023-03-07T06:52:46.600Z,21.60
2023-03-07T06:53:46.563Z,17.50
2023-03-07T06:54:46.586Z,18.10
2023-03-07T06:55:46.544Z,16.00
2023-03-07T06:56:46.529Z,17.30
2023-03-07T06:57:46.537Z,16.90
2023-03-07T06:58:46.516Z,17.60
2023-03-07T06:59:46.501Z,17.30
2023-03-07T07:00:46.489Z,18.30
2023-03-07T07:01:46.600Z,16.60
2023-03-07T07:02:46.604Z,16.40
2023-03-07T07:03:46.454Z,18.70
2023-03-07T07:04:47.452Z,18.80
2023-03-07T07:05:46.441Z,17.40
2023-03-07T07:06:46.460Z,20.40
2023-03-07T07:07:46.434Z,19.40
2023-03-07T07:08:46.421Z,18.70
2023-03-07T07:09:46.414Z,19.10
2023-03-07T07:10:46.399Z,18.50
2023-03-07T07:11:46.379Z,20.70
2023-03-07T07:12:46.413Z,19.10
2023-03-07T07:13:46.361Z,19.60
2023-03-07T07:14:46.361Z,19.70
2023-03-07T07:15:46.341Z,19.40
2023-03-07T07:16:46.428Z,18.80
2023-03-07T07:17:46.338Z,19.80
2023-03-07T07:18:46.316Z,19.40
2023-03-07T07:19:46.304Z,19.20
2023-03-07T07:20:46.296Z,20.40
2023-03-07T07:21:46.292Z,20.00
2023-03-07T07:22:46.280Z,20.70
2023-03-07T07:23:46.263Z,21.60
2023-03-07T07:24:46.264Z,21.80
2023-03-07T07:25:46.241Z,19.00
2023-03-07T07:26:46.234Z,20.50
2023-03-07T07:27:46.234Z,20.10
2023-03-07T07:28:46.213Z,19.50
2023-03-07T07:29:46.211Z,19.90
2023-03-07T07:30:46.186Z,21.70
2023-03-07T07:31:46.252Z,20.60
2023-03-07T07:32:46.308Z,20.20
2023-03-07T07:33:46.158Z,23.30
2023-03-07T07:34:46.157Z,19.00
2023-03-07T07:35:46.168Z,21.30
2023-03-07T07:36:46.145Z,20.50
2023-03-07T07:37:46.134Z,21.60
2023-03-07T07:38:46.110Z,19.80
2023-03-07T07:39:46.110Z,22.60
2023-03-07T07:40:46.097Z,17.40
2023-03-07T07:41:46.092Z,20.60
2023-03-07T07:42:46.090Z,20.30
2023-03-07T07:43:46.069Z,19.60
2023-03-07T07:44:46.056Z,19.60
2023-03-07T07:45:46.155Z,19.40
2023-03-07T07:46:46.036Z,21.30
2023-03-07T07:47:46.037Z,21.10
2023-03-07T07:48:46.016Z,20.10
2023-03-07T07:49:46.011Z,18.50
2023-03-07T07:50:45.999Z,20.10
2023-03-07T07:51:45.994Z,21.90
2023-03-07T07:52:45.994Z,19.90
2023-03-07T07:53:45.979Z,21.30
2023-03-07T07:54:45.962Z,23.00
2023-03-07T07:55:45.956Z,20.60
2023-03-07T07:56:45.942Z,20.50
2023-03-07T07:57:45.941Z,19.40
2023-03-07T07:58:45.926Z,22.60
2023-03-07T07:59:45.918Z,23.40
2023-03-07T08:00:45.906Z,23.40
2023-03-07T08:01:45.894Z,22.70
2023-03-07T08:02:45.929Z,20.20
2023-03-07T08:03:45.934Z,19.70
2023-03-07T08:04:45.871Z,21.90
2023-03-07T08:05:45.854Z,22.50
2023-03-07T08:06:45.842Z,21.00
2023-03-07T08:07:45.846Z,21.30
2023-03-07T08:08:45.819Z,20.10
2023-03-07T08:09:45.812Z,21.50
2023-03-07T08:10:45.804Z,20.40
2023-03-07T08:11:45.795Z,22.00
2023-03-07T08:12:45.795Z,21.40
2023-03-07T08:13:45.784Z,21.60
2023-03-07T08:14:45.774Z,21.00
2023-03-07T08:15:45.773Z,22.60
2023-03-07T08:16:45.746Z,25.20
2023-03-07T08:17:45.745Z,24.40
2023-03-07T08:18:45.729Z,24.30
2023-03-07T08:19:45.715Z,24.30
2023-03-07T08:20:45.722Z,19.00
2023-03-07T08:21:45.704Z,22.10
2023-03-07T08:22:45.683Z,20.70
2023-03-07T08:23:45.692Z,22.60
2023-03-07T08:24:45.664Z,22.40
2023-03-07T08:25:45.655Z,21.80
2023-03-07T08:26:45.658Z,23.00
2023-03-07T08:27:45.645Z,20.30
2023-03-07T08:28:45.651Z,23.50
2023-03-07T08:29:45.623Z,24.80
2023-03-07T08:30:45.622Z,23.10
2023-03-07T08:31:45.609Z,22.70
2023-03-07T08:32:45.655Z,23.30
2023-03-07T08:33:45.587Z,22.30
2023-03-07T08:34:45.569Z,24.30
2023-03-07T08:35:45.637Z,22.60
2023-03-07T08:36:45.546Z,23.60
2023-03-07T08:37:45.539Z,23.50
2023-03-07T08:38:45.548Z,24.80
2023-03-07T08:39:45.530Z,22.80
2023-03-07T08:40:45.512Z,21.80
2023-03-07T08:41:45.510Z,23.70
2023-03-07T08:42:45.540Z,22.30
2023-03-07T08:43:45.507Z,26.70
2023-03-07T08:44:45.522Z,22.60
2023-03-07T08:45:45.460Z,25.30
2023-03-07T08:46:45.447Z,25.20
2023-03-07T08:47:45.444Z,24.90
2023-03-07T08:48:45.445Z,21.50
2023-03-07T08:49:45.414Z,22.30
2023-03-07T08:50:45.404Z,21.80
2023-03-07T08:51:45.393Z,20.60
2023-03-07T08:52:45.384Z,22.50
2023-03-07T08:53:45.390Z,24.70
2023-03-07T08:54:45.361Z,20.80
2023-03-07T08:55:45.359Z,22.30
2023-03-07T08:56:45.361Z,24.50
2023-03-07T08:57:45.334Z,22.10
2023-03-07T08:58:45.333Z,21.70
2023-03-07T08:59:45.314Z,21.70
2023-03-07T09:00:45.301Z,20.60
2023-03-07T09:01:45.343Z,21.20
2023-03-07T09:02:45.329Z,21.40
2023-03-07T09:03:45.285Z,22.20
2023-03-07T09:04:45.348Z,21.50
2023-03-07T09:05:45.261Z,19.50
2023-03-07T09:06:45.256Z,21.70
2023-03-07T09:07:45.234Z,19.70
2023-03-07T09:08:45.229Z,22.00
2023-03-07T09:09:45.213Z,19.60
2023-03-07T09:10:45.207Z,19.60
2023-03-07T09:11:45.189Z,20.00
2023-03-07T09:12:45.183Z,19.70
2023-03-07T09:13:51.796Z,17.80
2023-03-07T09:14:47.169Z,20.60
2023-03-07T09:15:45.176Z,18.00
2023-03-07T09:16:45.146Z,16.90
2023-03-07T09:17:45.138Z,17.90
2023-03-07T09:18:45.138Z,19.10
2023-03-07T09:19:45.107Z,17.80
2023-03-07T09:20:45.106Z,20.10
2023-03-07T09:21:45.092Z,19.40
2023-03-07T09:22:45.078Z,16.80
2023-03-07T09:23:45.099Z,17.30
2023-03-07T09:24:45.069Z,16.70
2023-03-07T09:25:45.057Z,18.40
2023-03-07T09:26:45.048Z,17.40
2023-03-07T09:27:45.034Z,17.20
2023-03-07T09:28:45.032Z,16.90
2023-03-07T09:29:45.017Z,16.40
2023-03-07T09:30:45.009Z,16.10
2023-03-07T09:31:45.053Z,15.90
2023-03-07T09:32:44.980Z,15.10
2023-03-07T09:33:46.845Z,14.90
2023-03-07T09:34:45.982Z,15.90
2023-03-07T09:35:44.975Z,14.70
2023-03-07T09:36:44.952Z,16.00
2023-03-07T09:37:44.935Z,16.10
2023-03-07T09:38:44.934Z,16.20
2023-03-07T09:39:44.914Z,15.10
2023-03-07T09:40:44.909Z,16.50
2023-03-07T09:41:44.891Z,14.40
2023-03-07T09:42:44.891Z,15.20
2023-03-07T09:43:44.886Z,14.20
2023-03-07T09:44:44.873Z,15.40
2023-03-07T09:45:44.862Z,17.40
2023-03-07T09:46:44.850Z,16.50
2023-03-07T09:47:44.844Z,14.80
2023-03-07T09:48:44.836Z,15.10
2023-03-07T09:49:44.813Z,15.50
2023-03-07T09:50:44.815Z,14.50
2023-03-07T09:51:44.821Z,15.80
2023-03-07T09:52:44.790Z,15.40
2023-03-07T09:53:44.800Z,15.70
2023-03-07T09:54:44.766Z,14.80
2023-03-07T09:55:44.772Z,16.30
2023-03-07T09:56:44.752Z,15.00
2023-03-07T09:57:44.735Z,12.70
2023-03-07T09:58:44.754Z,15.60
2023-03-07T09:59:44.728Z,14.70
2023-03-07T10:00:44.707Z,13.80
2023-03-07T10:01:44.702Z,14.10
2023-03-07T10:02:44.727Z,14.20
2023-03-07T10:03:44.724Z,15.40
2023-03-07T10:04:44.706Z,14.90
2023-03-07T10:05:44.666Z,15.10
2023-03-07T10:06:44.651Z,13.30
2023-03-07T10:07:44.646Z,13.90
2023-03-07T10:08:44.650Z,14.40
2023-03-07T10:09:44.618Z,13.40
2023-03-07T10:10:44.610Z,14.50
2023-03-07T10:11:44.756Z,14.90
2023-03-07T10:12:44.592Z,13.20
2023-03-07T10:13:44.600Z,17.10
2023-03-07T10:14:44.595Z,15.40
2023-03-07T10:15:44.588Z,14.10
2023-03-07T10:16:44.634Z,13.50
2023-03-07T10:17:44.543Z,15.70
2023-03-07T10:18:44.572Z,16.00
2023-03-07T10:19:44.527Z,13.80
2023-03-07T10:20:44.526Z,16.50
2023-03-07T10:21:44.507Z,14.60
2023-03-07T10:22:44.507Z,14.40
2023-03-07T10:23:44.501Z,16.70
2023-03-07T10:24:44.478Z,14.10
2023-03-07T10:25:44.461Z,14.70
2023-03-07T10:26:44.455Z,13.60
2023-03-07T10:27:44.442Z,14.30
2023-03-07T10:28:44.452Z,14.00
2023-03-07T10:29:44.428Z,15.10
2023-03-07T10:30:44.416Z,15.00
2023-03-07T10:31:44.442Z,15.20
2023-03-07T10:32:44.452Z,13.50
2023-03-07T10:33:44.390Z,15.50
2023-03-07T10:34:44.462Z,14.00
2023-03-07T10:35:44.434Z,15.00
2023-03-07T10:36:44.366Z,15.10
2023-03-07T10:37:44.340Z,14.20
2023-03-07T10:38:44.347Z,13.80
2023-03-07T10:39:44.361Z,15.00
2023-03-07T10:40:44.309Z,14.90
2023-03-07T10:41:44.341Z,14.40
2023-03-07T10:42:44.290Z,14.80
2023-03-07T10:43:44.285Z,14.70
2023-03-07T10:44:44.277Z,13.40
2023-03-07T10:45:44.286Z,14.10
2023-03-07T10:46:55.329Z,13.90
2023-03-07T10:47:46.281Z,14.40
2023-03-07T10:48:44.238Z,17.00
2023-03-07T10:49:44.229Z,15.00
2023-03-07T10:50:44.213Z,13.90
2023-03-07T10:51:44.214Z,17.00
2023-03-07T10:52:44.204Z,15.40
2023-03-07T10:53:44.183Z,15.30
2023-03-07T10:54:44.180Z,17.00
2023-03-07T10:55:44.168Z,15.70
2023-03-07T10:56:44.172Z,15.40
2023-03-07T10:57:44.149Z,16.50
2023-03-07T10:58:44.138Z,14.60
2023-03-07T10:59:44.135Z,16.60
2023-03-07T11:00:44.112Z,15.50
2023-03-07T11:01:44.193Z,14.60
2023-03-07T11:02:44.103Z,16.60
2023-03-07T11:03:52.475Z,15.40
2023-03-07T11:04:46.298Z,19.90
2023-03-07T11:05:44.064Z,16.20
2023-03-07T11:06:44.074Z,16.70
2023-03-07T11:07:44.045Z,19.50
2023-03-07T11:08:44.037Z,17.80
2023-03-07T11:09:44.041Z,17.30
2023-03-07T11:10:44.009Z,18.80
2023-03-07T11:11:44.003Z,17.90
2023-03-07T11:12:43.980Z,16.60
2023-03-07T11:13:45.000Z,17.70
2023-03-07T11:14:44.004Z,18.70
2023-03-07T11:15:43.970Z,16.20
2023-03-07T11:16:44.021Z,17.40
2023-03-07T11:17:43.962Z,16.70
2023-03-07T11:18:43.955Z,16.50
2023-03-07T11:19:43.947Z,16.50
2023-03-07T11:20:43.984Z,15.80
2023-03-07T11:21:43.925Z,16.30
2023-03-07T11:22:43.945Z,15.20
2023-03-07T11:23:43.932Z,15.50
2023-03-07T11:24:43.877Z,16.50
2023-03-07T11:25:43.888Z,17.70
2023-03-07T11:26:43.881Z,16.50
2023-03-07T11:27:43.905Z,17.60
2023-03-07T11:28:43.854Z,18.00
2023-03-07T11:29:43.841Z,15.80
2023-03-07T11:30:43.844Z,16.80
2023-03-07T11:31:43.806Z,18.50
2023-03-07T11:32:44.846Z,18.50
2023-03-07T11:33:56.727Z,19.20
2023-03-07T11:34:45.783Z,18.10
2023-03-07T11:35:43.778Z,15.20
2023-03-07T11:36:43.763Z,16.30
2023-03-07T11:37:43.752Z,17.00
2023-03-07T11:38:43.748Z,16.80
2023-03-07T11:39:43.739Z,19.00
2023-03-07T11:40:43.835Z,19.00
2023-03-07T11:41:43.737Z,18.40
2023-03-07T11:42:43.745Z,18.20
2023-03-07T11:43:43.697Z,19.30
2023-03-07T11:44:43.707Z,17.40
2023-03-07T11:45:43.670Z,16.10
2023-03-07T11:46:43.743Z,16.10
2023-03-07T11:47:43.646Z,16.80
2023-03-07T11:48:43.642Z,17.20
2023-03-07T11:49:43.628Z,16.10
2023-03-07T11:50:43.633Z,17.30
2023-03-07T11:51:43.630Z,16.80
2023-03-07T11:52:43.612Z,15.30
2023-03-07T11:53:43.609Z,16.90
2023-03-07T11:54:43.584Z,17.20
2023-03-07T11:55:43.573Z,15.10
2023-03-07T11:56:43.568Z,17.50
2023-03-07T11:57:43.558Z,17.40
2023-03-07T11:58:43.549Z,16.90
2023-03-07T11:59:43.548Z,17.50
2023-03-07T12:00:43.521Z,17.20
2023-03-07T12:01:43.501Z,16.70
2023-03-07T12:02:43.561Z,17.90
2023-03-07T12:03:43.496Z,18.10
2023-03-07T12:04:43.476Z,16.50
2023-03-07T12:05:43.509Z,16.00
2023-03-07T12:06:43.458Z,16.90
2023-03-07T12:07:43.448Z,17.00
2023-03-07T12:08:43.432Z,14.10
2023-03-07T12:09:43.432Z,15.10
2023-03-07T12:10:43.414Z,15.00
2023-03-07T12:11:43.399Z,15.80
2023-03-07T12:12:43.386Z,16.30
2023-03-07T12:13:43.379Z,14.50
2023-03-07T12:14:43.383Z,16.10
2023-03-07T12:15:43.369Z,16.00
2023-03-07T12:16:43.408Z,16.90
2023-03-07T12:17:43.343Z,14.40
2023-03-07T12:18:43.335Z,12.70
2023-03-07T12:19:43.329Z,14.20
2023-03-07T12:20:43.332Z,13.50
2023-03-07T12:21:43.304Z,14.40
2023-03-07T12:22:43.296Z,13.70
2023-03-07T12:23:43.289Z,13.30
2023-03-07T12:24:43.298Z,13.00
2023-03-07T12:25:43.259Z,13.50
2023-03-07T12:26:43.251Z,11.50
2023-03-07T12:27:43.247Z,14.00
2023-03-07T12:28:43.232Z,12.30
2023-03-07T12:29:43.237Z,13.40
2023-03-07T12:30:43.220Z,10.40
2023-03-07T12:31:43.264Z,12.30
2023-03-07T12:32:43.406Z,10.90
2023-03-07T12:33:43.181Z,12.90
2023-03-07T12:34:43.171Z,13.00
2023-03-07T12:35:43.231Z,12.90
2023-03-07T12:36:43.262Z,12.80
2023-03-07T12:37:43.162Z,11.00
2023-03-07T12:38:43.128Z,11.90
2023-03-07T12:39:43.116Z,12.30
2023-03-07T12:40:43.118Z,12.90
2023-03-07T12:41:43.114Z,11.50
2023-03-07T12:42:43.089Z,11.60
2023-03-07T12:43:43.078Z,11.70
2023-03-07T12:44:43.071Z,11.40
2023-03-07T12:45:43.203Z,12.60
2023-03-07T12:46:43.054Z,11.10
2023-03-07T12:47:43.036Z,12.20
2023-03-07T12:48:43.038Z,12.30
2023-03-07T12:49:49.737Z,11.60
2023-03-07T12:50:45.016Z,11.90
2023-03-07T12:51:42.989Z,10.40
2023-03-07T12:52:42.981Z,12.30
2023-03-07T12:53:42.974Z,11.70